Time;durP1;ratioP1;P1;durP2;ratioP2;P2;SDS_P1;SDS_P2;PMS_P1;PMS_P2;Temp;Humidity;BMP_temperature;BMP_pressure;BME280_temperature;BME280_humidity;BME280_pressure;Samples;Min_cycle;Max_cycle;Signal;HPM_P1;HPM_P2
2021/12/07 00:00:34;;;;;;;9.07;5.68;;;3.40;99.90;;;;;;4181258;28;20047;-73
2021/12/07 00:02:35;;;;;;;7.60;5.20;;;3.40;99.90;;;;;;4148816;28;20033;-73
2021/12/07 00:04:37;;;;;;;7.88;5.72;;;3.40;99.90;;;;;;4166400;28;20371;-73
2021/12/07 00:06:38;;;;;;;7.63;5.28;;;3.40;99.90;;;;;;4164537;28;20041;-73
2021/12/07 00:08:41;;;;;;;10.20;6.35;;;3.50;99.90;;;;;;4165339;28;20500;-73
2021/12/07 00:10:42;;;;;;;;;;;3.50;99.90;;;;;;4181466;28;20074;-73
2021/12/07 00:12:45;;;;;;;10.45;6.18;;;3.50;99.90;;;;;;4166495;28;19905;-73
2021/12/07 00:14:46;;;;;;;11.02;6.55;;;3.50;99.90;;;;;;4181250;28;20017;-73
2021/12/07 00:16:46;;;;;;;10.75;6.40;;;3.50;99.90;;;;;;4164508;28;20044;-73
2021/12/07 00:18:47;;;;;;;8.73;6.00;;;3.50;99.90;;;;;;4166470;28;20034;-73
2021/12/07 00:20:48;;;;;;;9.32;6.38;;;3.50;99.90;;;;;;4165897;28;20092;-73
2021/12/07 00:22:55;;;;;;;9.38;5.88;;;3.50;99.90;;;;;;4166317;28;20079;-73
2021/12/07 00:24:56;;;;;;;7.97;5.28;;;3.50;99.90;;;;;;4164741;28;20101;-73
2021/12/07 00:26:56;;;;;;;8.32;5.57;;;3.60;99.90;;;;;;4165765;28;20033;-73
2021/12/07 00:28:59;;;;;;;9.60;6.15;;;3.60;99.90;;;;;;4181700;28;20052;-73
2021/12/07 00:31:09;;;;;;;11.73;5.93;;;3.60;99.90;;;;;;4164420;28;20029;-74
2021/12/07 00:33:19;;;;;;;9.02;5.38;;;3.60;99.90;;;;;;4166374;28;20094;-73
2021/12/07 00:35:33;;;;;;;8.68;5.80;;;3.60;99.90;;;;;;4165265;28;20405;-74
2021/12/07 00:37:35;;;;;;;8.60;5.70;;;3.70;99.90;;;;;;4165993;28;20091;-73
2021/12/07 00:39:36;;;;;;;10.70;6.32;;;3.60;99.90;;;;;;4166214;28;20029;-74
2021/12/07 00:41:37;;;;;;;9.95;6.53;;;3.60;99.90;;;;;;4165588;28;20108;-73
2021/12/07 00:43:38;;;;;;;11.07;6.78;;;3.60;99.90;;;;;;4165966;28;20033;-73
2021/12/07 00:45:43;;;;;;;9.23;5.88;;;3.60;99.90;;;;;;4165021;28;20030;-73
2021/12/07 00:47:44;;;;;;;11.93;7.00;;;3.60;99.90;;;;;;4181354;28;20083;-73
2021/12/07 00:49:45;;;;;;;8.18;5.32;;;3.50;99.90;;;;;;4148387;28;20025;-73
2021/12/07 00:51:46;;;;;;;9.43;6.22;;;3.60;99.90;;;;;;4163968;28;20131;-73
2021/12/07 00:53:47;;;;;;;9.55;5.53;;;3.60;99.90;;;;;;4167685;28;20028;-74
2021/12/07 00:55:50;;;;;;;8.27;5.57;;;3.60;99.90;;;;;;4158106;28;20033;-73
2021/12/07 00:57:53;;;;;;;9.23;5.68;;;3.60;99.90;;;;;;4165304;28;20074;-74
2021/12/07 00:59:54;;;;;;;9.25;5.82;;;3.60;99.90;;;;;;4182194;28;20032;-73
2021/12/07 01:01:55;;;;;;;8.23;5.38;;;3.60;99.90;;;;;;4181742;28;20091;-73
2021/12/07 01:03:56;;;;;;;9.07;6.05;;;3.60;99.90;;;;;;4181866;28;20394;-73
2021/12/07 01:06:23;;;;;;;9.00;5.90;;;3.60;99.90;;;;;;4181515;28;20024;-73
2021/12/07 01:24:41;;;;;;;8.05;5.50;;;3.40;99.90;;;;;;4181504;28;20031;-74
2021/12/07 01:26:43;;;;;;;9.63;6.25;;;3.40;99.90;;;;;;4180159;28;20025;-73
2021/12/07 01:28:46;;;;;;;;;;;3.40;99.90;;;;;;4182213;28;20032;-73
2021/12/07 01:33:19;;;;;;;7.63;5.72;;;3.30;99.90;;;;;;4182021;28;20126;-74
2021/12/07 01:44:28;;;;;;;11.63;7.70;;;3.10;99.90;;;;;;4181585;28;20021;-74
2021/12/07 01:51:32;;;;;;;12.43;6.88;;;3.10;99.90;;;;;;4180988;28;20029;-73
2021/12/07 01:59:32;;;;;;;9.68;6.57;;;3.20;99.90;;;;;;4181134;28;20021;-74
2021/12/07 02:00:37;;;;;;;10.20;7.05;;;3.20;99.90;;;;;;4181176;28;20079;-73
2021/12/07 02:02:39;;;;;;;11.00;7.65;;;3.30;99.90;;;;;;4181661;28;20040;-73
2021/12/07 02:04:40;;;;;;;12.15;8.48;;;3.30;99.90;;;;;;4181419;28;20032;-73
2021/12/07 02:06:40;;;;;;;10.45;7.82;;;3.30;99.90;;;;;;4181352;28;20051;-73
2021/12/07 02:08:41;;;;;;;14.77;8.70;;;3.30;99.90;;;;;;4169442;28;20052;-73
2021/12/07 02:10:42;;;;;;;11.07;7.72;;;3.30;99.90;;;;;;4173838;28;20018;-73
2021/12/07 02:12:48;;;;;;;12.45;8.00;;;3.40;99.90;;;;;;4168716;28;20110;-73
2021/12/07 02:14:49;;;;;;;13.93;8.60;;;3.40;99.90;;;;;;4173383;28;20033;-73
2021/12/07 02:16:57;;;;;;;12.02;8.25;;;3.40;99.90;;;;;;4179740;28;20033;-73
2021/12/07 02:18:58;;;;;;;11.25;7.80;;;3.50;99.90;;;;;;4166933;28;20029;-73
2021/12/07 02:21:22;;;;;;;10.93;8.05;;;3.50;99.90;;;;;;4167604;28;20033;-73
2021/12/07 02:23:23;;;;;;;13.27;9.30;;;3.60;99.90;;;;;;4166163;28;20359;-73
2021/12/07 02:25:24;;;;;;;14.80;9.93;;;3.60;99.90;;;;;;4168159;28;20045;-73
2021/12/07 02:27:24;;;;;;;13.60;9.18;;;3.60;99.90;;;;;;4169829;28;20076;-73
2021/12/07 02:29:25;;;;;;;16.38;10.20;;;3.60;99.90;;;;;;4159069;28;20029;-73
2021/12/07 02:31:26;;;;;;;17.15;10.18;;;3.70;99.90;;;;;;4151188;28;20104;-73
2021/12/07 02:33:28;;;;;;;15.48;10.10;;;3.70;99.90;;;;;;4151857;28;20026;-73
2021/12/07 02:35:29;;;;;;;17.77;10.80;;;3.80;99.90;;;;;;4166325;28;20508;-73
2021/12/07 02:37:32;;;;;;;18.45;10.25;;;3.70;99.90;;;;;;4151421;28;20026;-74
2021/12/07 02:39:36;;;;;;;19.38;10.35;;;3.80;99.90;;;;;;4151674;28;20514;-73
2021/12/07 02:41:38;;;;;;;17.23;9.43;;;3.90;99.90;;;;;;4151153;28;20108;-73
2021/12/07 02:43:39;;;;;;;11.68;7.93;;;3.90;99.90;;;;;;4150327;28;20041;-73
2021/12/07 02:45:40;;;;;;;16.20;8.85;;;4.00;99.90;;;;;;4133652;28;20030;-73
2021/12/07 02:47:40;;;;;;;13.45;8.10;;;4.00;99.90;;;;;;4151243;28;20487;-73
2021/12/07 02:49:41;;;;;;;15.38;9.05;;;4.10;99.90;;;;;;4151293;28;20026;-73
2021/12/07 02:51:42;;;;;;;16.17;8.63;;;4.10;99.90;;;;;;4149702;28;20029;-73
2021/12/07 02:53:43;;;;;;;14.95;8.23;;;4.10;99.90;;;;;;4150010;28;20426;-74
2021/12/07 02:55:44;;;;;;;13.07;8.07;;;4.20;99.90;;;;;;4149218;28;20598;-74
2021/12/07 02:57:45;;;;;;;14.20;9.45;;;4.20;99.90;;;;;;4151355;28;20030;-73
2021/12/07 02:59:52;;;;;;;19.58;10.07;;;4.20;99.90;;;;;;4150177;28;20083;-74
2021/12/07 03:02:05;;;;;;;15.30;9.35;;;4.20;99.90;;;;;;4152848;28;20030;-74
2021/12/07 03:04:11;;;;;;;20.27;10.50;;;4.30;99.90;;;;;;4158693;28;20030;-73
2021/12/07 03:06:20;;;;;;;18.92;11.05;;;4.30;99.90;;;;;;4166469;28;20544;-73
2021/12/07 03:26:49;;;;;;;23.38;10.10;;;4.50;99.90;;;;;;4142230;28;20049;-73
2021/12/07 03:28:53;;;;;;;21.83;10.80;;;4.50;99.90;;;;;;4156574;28;20033;-73
2021/12/07 03:30:54;;;;;;;18.98;11.00;;;4.50;99.90;;;;;;4170528;28;20119;-73
2021/12/07 03:32:54;;;;;;;18.13;9.73;;;4.50;99.90;;;;;;4174232;28;20025;-73
2021/12/07 03:34:55;;;;;;;20.00;11.07;;;4.50;99.90;;;;;;4182197;28;20036;-73
2021/12/07 03:36:56;;;;;;;18.88;10.70;;;4.50;99.90;;;;;;4165104;28;20033;-73
2021/12/07 03:38:57;;;;;;;18.58;10.30;;;4.50;99.90;;;;;;4171986;28;20421;-73
2021/12/07 03:40:58;;;;;;;20.65;10.40;;;4.50;99.90;;;;;;4150503;28;20031;-73
2021/12/07 03:43:00;;;;;;;26.13;10.65;;;4.50;99.90;;;;;;4168795;28;20037;-73
2021/12/07 03:45:01;;;;;;;16.05;9.55;;;4.50;99.90;;;;;;4174031;28;20057;-73
2021/12/07 03:47:02;;;;;;;22.35;10.55;;;4.50;99.90;;;;;;4165874;28;20531;-73
2021/12/07 03:49:03;;;;;;;18.13;9.98;;;4.50;99.90;;;;;;4168268;28;20048;-73
2021/12/07 03:51:04;;;;;;;16.42;9.82;;;4.50;99.90;;;;;;4168340;28;20033;-73
2021/12/07 03:53:05;;;;;;;16.27;10.10;;;4.50;99.90;;;;;;4172096;28;20040;-73
2021/12/07 03:55:07;;;;;;;13.43;9.00;;;4.50;99.90;;;;;;4167669;28;20025;-73
2021/12/07 03:57:08;;;;;;;19.23;9.75;;;4.50;99.90;;;;;;4162121;28;20092;-73
2021/12/07 03:59:08;;;;;;;17.50;9.25;;;4.50;99.90;;;;;;4175567;28;20120;-73
2021/12/07 04:01:12;;;;;;;20.08;10.35;;;4.50;99.90;;;;;;4168256;28;20528;-73
2021/12/07 04:03:15;;;;;;;21.77;9.68;;;4.50;99.90;;;;;;4174072;28;20034;-73
2021/12/07 04:05:18;;;;;;;15.60;9.20;;;4.50;99.90;;;;;;4167230;28;20371;-73
2021/12/07 04:07:19;;;;;;;17.98;9.30;;;4.50;99.90;;;;;;4171211;28;20056;-73
2021/12/07 04:09:19;;;;;;;19.60;9.02;;;4.50;99.90;;;;;;4167451;28;20047;-73
2021/12/07 04:11:20;;;;;;;16.85;8.82;;;4.50;99.90;;;;;;4166500;28;20029;-73
2021/12/07 04:13:21;;;;;;;17.63;8.48;;;4.50;99.90;;;;;;4168142;28;20061;-73
2021/12/07 04:15:22;;;;;;;19.05;8.82;;;4.50;99.90;;;;;;4152564;28;20471;-73
2021/12/07 04:17:22;;;;;;;13.95;8.13;;;4.50;99.90;;;;;;4187328;28;20036;-73
2021/12/07 04:19:23;;;;;;;12.57;8.13;;;4.50;99.90;;;;;;4170460;28;20083;-73
2021/12/07 04:21:24;;;;;;;14.80;7.88;;;4.50;99.90;;;;;;4162781;28;20033;-73
2021/12/07 04:23:24;;;;;;;16.63;7.40;;;4.50;99.90;;;;;;4171921;28;20028;-73
2021/12/07 04:25:27;;;;;;;20.67;7.50;;;4.50;99.90;;;;;;4167912;28;20137;-73
2021/12/07 04:27:30;;;;;;;17.85;7.57;;;4.50;99.90;;;;;;4157410;28;20030;-72
2021/12/07 04:29:31;;;;;;;12.95;6.47;;;4.50;99.90;;;;;;4162446;28;20030;-73
2021/12/07 04:31:31;;;;;;;14.70;7.35;;;4.50;99.90;;;;;;4151814;28;20128;-73
2021/12/07 04:33:33;;;;;;;21.13;6.78;;;4.40;99.90;;;;;;4153622;28;20478;-73
2021/12/07 04:35:35;;;;;;;16.58;6.00;;;4.40;99.90;;;;;;4165898;28;20029;-73
2021/12/07 04:37:36;;;;;;;15.60;5.93;;;4.40;99.90;;;;;;4173277;28;20517;-73
2021/12/07 04:39:37;;;;;;;13.90;5.68;;;4.50;99.90;;;;;;4169003;28;20024;-73
2021/12/07 04:41:41;;;;;;;16.48;6.13;;;4.50;99.90;;;;;;4166837;28;20049;-73
2021/12/07 04:43:42;;;;;;;16.45;5.53;;;4.50;99.90;;;;;;4136453;28;20613;-73
2021/12/07 04:47:58;;;;;;;12.90;4.68;;;4.50;99.90;;;;;;4167086;28;20037;-73
2021/12/07 04:50:28;;;;;;;18.55;5.20;;;4.50;99.90;;;;;;4169306;28;20063;-73
2021/12/07 04:59:18;;;;;;;14.75;4.10;;;4.60;99.90;;;;;;4153240;28;20104;-73
2021/12/07 05:01:19;;;;;;;13.75;5.05;;;4.60;99.90;;;;;;4170906;28;20028;-73
2021/12/07 05:03:20;;;;;;;18.63;4.30;;;4.60;99.90;;;;;;4172355;28;20466;-73
2021/12/07 05:05:24;;;;;;;11.00;3.67;;;4.60;99.90;;;;;;4157863;28;20045;-73
2021/12/07 05:07:33;;;;;;;11.52;3.95;;;4.60;99.90;;;;;;4169123;28;20060;-73
2021/12/07 05:10:07;;;;;;;16.15;4.45;;;4.60;99.90;;;;;;4166894;28;20040;-73
2021/12/07 05:16:10;;;;;;;13.80;4.50;;;4.60;99.90;;;;;;4168729;28;20033;-73
2021/12/07 05:38:45;;;;;;;12.77;4.25;;;4.60;99.90;;;;;;4170795;28;20021;-73
2021/12/07 05:40:46;;;;;;;12.25;4.15;;;4.60;99.90;;;;;;4164894;28;20061;-73
2021/12/07 05:42:47;;;;;;;12.98;3.75;;;4.60;99.90;;;;;;4168423;28;20039;-73
2021/12/07 05:44:48;;;;;;;17.20;3.78;;;4.60;99.90;;;;;;4161160;28;20570;-73
2021/12/07 05:46:49;;;;;;;16.83;4.15;;;4.60;99.90;;;;;;4153875;28;20059;-73
2021/12/07 05:48:50;;;;;;;17.83;4.15;;;4.60;99.90;;;;;;4169197;28;20479;-73
2021/12/07 05:50:50;;;;;;;12.38;3.95;;;4.60;99.90;;;;;;4173303;28;20037;-73
2021/12/07 05:52:51;;;;;;;11.50;3.53;;;4.50;99.90;;;;;;4152633;28;20022;-73
2021/12/07 05:54:52;;;;;;;15.57;4.60;;;4.60;99.90;;;;;;4166345;28;20069;-73
2021/12/07 05:56:53;;;;;;;22.23;4.43;;;4.60;99.90;;;;;;4165686;28;20032;-73
2021/12/07 05:58:54;;;;;;;15.20;4.45;;;4.60;99.90;;;;;;4166558;28;20024;-73
2021/12/07 06:00:57;;;;;;;16.25;4.50;;;4.60;99.90;;;;;;4149319;28;20033;-73
2021/12/07 06:03:01;;;;;;;12.25;4.00;;;4.50;99.90;;;;;;4171315;28;20052;-73
2021/12/07 06:05:03;;;;;;;11.02;3.58;;;4.60;99.90;;;;;;4169736;28;20401;-73
2021/12/07 06:07:04;;;;;;;19.70;4.17;;;4.60;99.90;;;;;;4169063;28;20060;-73
2021/12/07 06:09:04;;;;;;;19.77;4.57;;;4.60;99.90;;;;;;4173150;28;20645;-73
2021/12/07 06:11:05;;;;;;;14.93;3.17;;;4.60;99.90;;;;;;4152575;28;20208;-73
2021/12/07 06:13:06;;;;;;;17.38;4.90;;;4.60;99.90;;;;;;4169274;28;20029;-73
2021/12/07 06:15:07;;;;;;;17.15;4.32;;;4.60;99.90;;;;;;4162332;28;20079;-72
2021/12/07 06:17:08;;;;;;;11.73;3.55;;;4.60;99.90;;;;;;4170495;28;20075;-73
2021/12/07 06:19:09;;;;;;;14.30;3.83;;;4.60;99.90;;;;;;4170163;28;20029;-73
2021/12/07 06:21:13;;;;;;;6.97;2.67;;;4.50;99.90;;;;;;4173158;28;20556;-73
2021/12/07 06:23:16;;;;;;;14.07;3.95;;;4.50;99.90;;;;;;4170781;28;20037;-73
2021/12/07 06:25:17;;;;;;;15.70;3.95;;;4.50;99.90;;;;;;4176646;28;20041;-73
2021/12/07 06:27:17;;;;;;;15.55;4.15;;;4.50;99.90;;;;;;4170966;28;20030;-73
2021/12/07 06:29:18;;;;;;;14.45;3.67;;;4.50;99.90;;;;;;4160200;28;20629;-73
2021/12/07 06:31:19;;;;;;;16.45;4.15;;;4.50;99.90;;;;;;4153828;28;20029;-73
2021/12/07 06:33:22;;;;;;;11.10;3.30;;;4.50;99.90;;;;;;4161495;28;20067;-73
2021/12/07 06:35:22;;;;;;;11.48;3.35;;;4.50;99.90;;;;;;4174253;28;20086;-73
2021/12/07 06:37:23;;;;;;;11.85;4.03;;;4.50;99.90;;;;;;4166186;28;20383;-73
2021/12/07 06:39:24;;;;;;;12.93;3.97;;;4.50;99.90;;;;;;4169060;28;20492;-73
2021/12/07 06:41:25;;;;;;;15.23;4.30;;;4.40;99.90;;;;;;4165544;28;20027;-73
2021/12/07 06:43:26;;;;;;;8.63;3.08;;;4.40;99.90;;;;;;4172919;28;20033;-73
2021/12/07 06:45:29;;;;;;;11.48;3.53;;;4.50;99.90;;;;;;4158163;28;20064;-73
2021/12/07 06:47:29;;;;;;;12.50;3.22;;;4.40;99.90;;;;;;4166602;28;20033;-73
2021/12/07 06:49:30;;;;;;;15.20;3.72;;;4.40;99.90;;;;;;4166215;28;20026;-73
2021/12/07 06:51:30;;;;;;;12.35;4.28;;;4.40;99.90;;;;;;4170767;28;20026;-73
2021/12/07 06:53:35;;;;;;;17.65;4.30;;;4.40;99.90;;;;;;4167693;28;20025;-73
2021/12/07 06:55:36;;;;;;;10.75;3.63;;;4.40;99.90;;;;;;4159792;28;20117;-73
2021/12/07 06:57:37;;;;;;;8.98;3.00;;;4.40;99.90;;;;;;4175397;28;20401;-73
2021/12/07 06:59:38;;;;;;;12.63;3.88;;;4.40;99.90;;;;;;4174707;28;20040;-73
2021/12/07 07:01:38;;;;;;;17.00;3.75;;;4.40;99.90;;;;;;4159694;28;20030;-73
2021/12/07 07:03:40;;;;;;;12.27;3.45;;;4.40;99.90;;;;;;4173530;28;20029;-74
2021/12/07 07:05:40;;;;;;;10.45;3.60;;;4.40;99.90;;;;;;4168539;28;20491;-73
2021/12/07 07:07:42;;;;;;;12.30;3.20;;;4.50;99.90;;;;;;4174939;28;20046;-73
2021/12/07 07:09:43;;;;;;;9.55;3.72;;;4.50;99.90;;;;;;4170220;28;20052;-73
2021/12/07 07:11:44;;;;;;;14.77;3.60;;;4.40;99.90;;;;;;4152364;28;20087;-73
2021/12/07 07:13:46;;;;;;;15.18;3.45;;;4.40;99.90;;;;;;4173335;28;20088;-73
2021/12/07 07:15:47;;;;;;;20.25;3.78;;;4.40;99.90;;;;;;4173974;28;20037;-74
2021/12/07 07:17:47;;;;;;;13.35;4.22;;;4.40;99.90;;;;;;4168849;28;20028;-73
2021/12/07 07:19:48;;;;;;;17.40;4.22;;;4.40;99.90;;;;;;4168796;28;20040;-73
2021/12/07 07:21:48;;;;;;;11.55;4.15;;;4.40;99.90;;;;;;4167978;28;20108;-73
2021/12/07 07:23:51;;;;;;;12.68;4.40;;;4.40;99.90;;;;;;4148983;28;20482;-73
2021/12/07 07:25:55;;;;;;;12.02;3.88;;;4.40;99.90;;;;;;4168167;28;20025;-74
2021/12/07 07:27:56;;;;;;;15.82;4.28;;;4.30;99.90;;;;;;4174648;28;20083;-73
2021/12/07 07:29:57;;;;;;;14.73;4.75;;;4.30;99.90;;;;;;4166444;28;20030;-73
2021/12/07 07:31:58;;;;;;;19.70;4.60;;;4.30;99.90;;;;;;4174305;28;20065;-73
2021/12/07 07:33:59;;;;;;;10.93;3.45;;;4.30;99.90;;;;;;4149120;28;20537;-73
2021/12/07 07:36:00;;;;;;;14.55;4.10;;;4.30;99.90;;;;;;4169171;28;20029;-73
2021/12/07 07:38:01;;;;;;;9.57;3.38;;;4.30;99.90;;;;;;4168338;28;20410;-73
2021/12/07 07:40:05;;;;;;;13.10;4.13;;;4.30;99.90;;;;;;4172813;28;20108;-73
2021/12/07 07:42:06;;;;;;;10.10;3.72;;;4.30;99.90;;;;;;4150369;28;20034;-73
2021/12/07 07:44:07;;;;;;;13.10;3.85;;;4.30;99.90;;;;;;4172324;28;20029;-73
2021/12/07 07:46:07;;;;;;;11.35;3.40;;;4.30;99.90;;;;;;4166978;28;20037;-73
2021/12/07 07:48:08;;;;;;;15.70;4.13;;;4.30;99.90;;;;;;4168360;28;20242;-73
2021/12/07 07:50:12;;;;;;;11.05;3.80;;;4.30;99.90;;;;;;4143318;28;20034;-73
2021/12/07 07:52:13;;;;;;;12.52;3.60;;;4.30;99.90;;;;;;4155393;28;20032;-73
2021/12/07 07:54:14;;;;;;;13.90;4.63;;;4.30;99.90;;;;;;4168468;28;20026;-73
2021/12/07 07:56:14;;;;;;;13.25;4.10;;;4.30;99.90;;;;;;4166863;28;20038;-73
2021/12/07 07:58:16;;;;;;;16.30;4.70;;;4.30;99.90;;;;;;4156140;28;20116;-73
2021/12/07 08:00:19;;;;;;;11.03;3.97;;;4.30;99.90;;;;;;4172917;28;20029;-73
2021/12/07 08:02:20;;;;;;;13.40;3.97;;;4.30;99.90;;;;;;4180496;23;20052;-66
2021/12/07 08:04:20;;;;;;;13.25;4.22;;;4.30;99.90;;;;;;4166832;28;20073;-62
2021/12/07 08:06:21;;;;;;;14.02;4.53;;;4.40;99.90;;;;;;4167052;28;20042;-63
2021/12/07 08:08:22;;;;;;;12.52;4.60;;;4.40;99.90;;;;;;4167891;28;20484;-62
2021/12/07 08:10:28;;;;;;;12.65;4.03;;;4.40;99.90;;;;;;4172467;28;20056;-63
2021/12/07 08:12:29;;;;;;;14.13;4.07;;;4.50;99.90;;;;;;4170395;28;20459;-63
2021/12/07 08:14:29;;;;;;;12.38;4.28;;;4.60;99.90;;;;;;4168053;28;20074;-62
2021/12/07 08:16:30;;;;;;;16.92;4.25;;;4.70;99.90;;;;;;4167318;28;20370;-62
2021/12/07 08:18:31;;;;;;;14.68;4.30;;;4.80;99.90;;;;;;4166167;28;20061;-62
2021/12/07 08:20:32;;;;;;;9.73;4.20;;;4.80;99.90;;;;;;4167185;28;20111;-63
2021/12/07 08:22:32;;;;;;;11.07;4.20;;;4.80;99.90;;;;;;4167784;28;20113;-62
2021/12/07 08:24:33;;;;;;;12.48;4.07;;;4.80;99.90;;;;;;4170443;28;20036;-62
2021/12/07 08:26:35;;;;;;;9.77;3.50;;;4.90;99.90;;;;;;4160055;28;20056;-62
2021/12/07 08:28:36;;;;;;;15.80;3.67;;;4.90;99.90;;;;;;4167834;28;20444;-62
2021/12/07 08:30:37;;;;;;;14.10;3.95;;;4.90;99.90;;;;;;4172883;28;20033;-62
2021/12/07 08:32:39;;;;;;;8.25;3.30;;;4.90;99.90;;;;;;4166725;28;20495;-62
2021/12/07 08:34:39;;;;;;;12.43;3.83;;;4.90;99.90;;;;;;4163660;28;20025;-62
2021/12/07 08:36:40;;;;;;;15.43;3.88;;;4.90;99.90;;;;;;4168106;28;20069;-62
2021/12/07 08:38:41;;;;;;;12.48;3.80;;;4.90;99.90;;;;;;4173550;28;20026;-62
2021/12/07 08:40:42;;;;;;;17.73;4.65;;;4.90;99.90;;;;;;4166381;28;20065;-62
2021/12/07 08:42:43;;;;;;;14.93;4.43;;;4.90;99.90;;;;;;4167570;28;20040;-62
2021/12/07 08:44:44;;;;;;;11.75;4.10;;;4.90;99.90;;;;;;4171758;28;20115;-62
2021/12/07 08:46:44;;;;;;;13.52;5.00;;;4.80;99.90;;;;;;4166279;28;20033;-62
2021/12/07 08:48:45;;;;;;;10.27;3.67;;;4.90;99.90;;;;;;4162726;28;20048;-62
2021/12/07 08:50:46;;;;;;;13.38;4.00;;;4.80;99.90;;;;;;4166529;28;20053;-62
2021/12/07 08:52:48;;;;;;;14.10;4.00;;;4.80;99.90;;;;;;4167533;28;20030;-62
2021/12/07 09:01:30;;;;;;;11.10;3.80;;;4.90;99.90;;;;;;4166281;28;20049;-62
2021/12/07 09:03:31;;;;;;;16.40;4.40;;;4.80;99.90;;;;;;4168316;28;20083;-62
2021/12/07 09:05:32;;;;;;;11.88;3.28;;;4.80;99.90;;;;;;4166282;28;20289;-62
2021/12/07 09:07:33;;;;;;;10.48;3.33;;;4.80;99.90;;;;;;4170006;28;20044;-62
2021/12/07 09:09:34;;;;;;;21.65;4.32;;;4.80;99.90;;;;;;4163510;28;20033;-61
2021/12/07 09:11:34;;;;;;;9.23;3.47;;;4.80;99.90;;;;;;4170616;28;20468;-62
2021/12/07 09:13:35;;;;;;;16.55;4.20;;;4.90;99.90;;;;;;4170179;28;20045;-61
2021/12/07 09:15:37;;;;;;;11.35;3.55;;;4.80;99.90;;;;;;4157951;28;20034;-61
2021/12/07 09:17:38;;;;;;;10.75;3.35;;;4.90;99.90;;;;;;4151454;28;20092;-62
2021/12/07 09:19:40;;;;;;;13.43;3.88;;;4.80;99.90;;;;;;4169533;28;20029;-62
2021/12/07 09:21:41;;;;;;;12.98;3.72;;;4.90;99.90;;;;;;4173499;28;20033;-62
2021/12/07 09:23:42;;;;;;;9.73;3.07;;;4.90;99.90;;;;;;4163345;28;20033;-62
2021/12/07 09:25:43;;;;;;;9.90;3.70;;;5.00;99.90;;;;;;4165265;28;20747;-62
2021/12/07 09:27:44;;;;;;;9.48;3.05;;;5.10;99.90;;;;;;4170437;28;20044;-61
2021/12/07 09:29:44;;;;;;;11.30;2.85;;;5.20;99.90;;;;;;4170533;28;20476;-62
2021/12/07 09:31:46;;;;;;;16.40;4.28;;;5.30;99.90;;;;;;4162925;28;20029;-62
2021/12/07 09:33:46;;;;;;;8.95;3.42;;;5.40;99.90;;;;;;4157500;28;20037;-62
2021/12/07 09:35:47;;;;;;;12.13;3.88;;;5.40;99.90;;;;;;4164878;28;20403;-62
2021/12/07 09:37:51;;;;;;;21.25;4.82;;;5.50;99.90;;;;;;4166468;28;20068;-62
2021/12/07 09:39:51;;;;;;;14.43;4.45;;;5.50;99.90;;;;;;4170651;28;20038;-62
2021/12/07 09:41:52;;;;;;;16.05;5.57;;;5.50;99.90;;;;;;4162931;28;20103;-62
2021/12/07 09:43:54;;;;;;;10.43;4.15;;;5.60;99.90;;;;;;4167966;28;20468;-62
2021/12/07 09:45:54;;;;;;;14.32;4.93;;;5.50;99.90;;;;;;4165776;28;20503;-62
2021/12/07 09:47:56;;;;;;;13.27;4.15;;;5.60;99.90;;;;;;4166903;28;20040;-62
2021/12/07 09:49:56;;;;;;;14.85;5.47;;;5.60;99.90;;;;;;4166459;28;20525;-62
2021/12/07 09:51:57;;;;;;;14.82;4.40;;;5.70;99.90;;;;;;4166063;28;20037;-62
2021/12/07 09:53:59;;;;;;;14.70;4.85;;;5.80;99.90;;;;;;4168339;28;20033;-62
2021/12/07 09:56:02;;;;;;;13.73;4.88;;;5.80;99.90;;;;;;4159182;28;20033;-62
2021/12/07 09:58:03;;;;;;;;;;;5.70;99.90;;;;;;4166495;28;20034;-62
2021/12/07 10:00:07;;;;;;;13.32;4.85;;;5.80;99.90;;;;;;4169370;28;19908;-63
2021/12/07 10:02:07;;;;;;;14.00;5.05;;;5.80;99.90;;;;;;4165808;28;20077;-62
2021/12/07 10:04:09;;;;;;;12.85;5.03;;;5.80;99.90;;;;;;4166513;28;20045;-62
2021/12/07 10:06:10;;;;;;;13.35;5.20;;;5.80;99.90;;;;;;4165233;28;20074;-62
2021/12/07 10:08:11;;;;;;;15.32;4.75;;;5.90;99.90;;;;;;4166383;28;20434;-61
2021/12/07 10:10:25;;;;;;;11.18;4.53;;;5.90;99.90;;;;;;4169682;28;20026;-62
2021/12/07 10:12:28;;;;;;;11.23;4.70;;;6.00;99.90;;;;;;4170039;28;20034;-61
2021/12/07 10:14:42;;;;;;;14.75;4.22;;;6.00;99.90;;;;;;4168928;28;20527;-61
2021/12/07 10:16:46;;;;;;;11.93;3.88;;;6.00;99.90;;;;;;4163004;28;20029;-61
2021/12/07 10:18:47;;;;;;;11.55;4.25;;;5.90;99.90;;;;;;4163649;28;20034;-61
2021/12/07 10:20:59;;;;;;;16.27;4.75;;;6.10;99.90;;;;;;4165641;28;20035;-61
2021/12/07 10:23:20;;;;;;;14.88;4.65;;;6.10;99.90;;;;;;4168732;28;20061;-61
2021/12/07 10:25:28;;;;;;;12.77;3.85;;;6.10;99.90;;;;;;4166636;28;20025;-62
2021/12/07 10:27:38;;;;;;;16.50;3.97;;;6.10;99.90;;;;;;4166502;28;20033;-62
2021/12/07 10:29:40;;;;;;;16.05;3.78;;;6.20;99.90;;;;;;4169613;28;20029;-61
2021/12/07 10:31:51;;;;;;;11.48;3.65;;;6.20;99.90;;;;;;4169323;28;20037;-61
2021/12/07 10:34:14;;;;;;;10.40;4.03;;;6.20;99.90;;;;;;4169826;28;20030;-61
2021/12/07 10:36:23;;;;;;;13.10;4.18;;;6.30;99.90;;;;;;4171939;28;20395;-62
2021/12/07 10:38:24;;;;;;;13.45;3.10;;;6.40;99.90;;;;;;4167028;28;20535;-62
2021/12/07 10:40:24;;;;;;;13.20;3.60;;;6.30;99.90;;;;;;4172677;28;20051;-62
2021/12/07 10:42:30;;;;;;;10.35;3.10;;;6.40;99.90;;;;;;4167659;28;20575;-61
2021/12/07 10:44:37;;;;;;;15.02;3.55;;;6.40;99.90;;;;;;4169798;28;20120;-62
2021/12/07 10:46:51;;;;;;;14.15;3.78;;;6.40;99.90;;;;;;4168835;28;20038;-62
2021/12/07 10:49:07;;;;;;;14.82;4.13;;;6.40;99.90;;;;;;4167721;28;20024;-62
2021/12/07 10:51:11;;;;;;;13.45;3.53;;;6.50;99.90;;;;;;4168939;28;20034;-61
2021/12/07 10:53:12;;;;;;;11.45;3.10;;;6.50;99.90;;;;;;4169266;28;20466;-62
2021/12/07 10:55:17;;;;;;;17.40;4.57;;;6.50;99.90;;;;;;4168118;28;20029;-62
2021/12/07 10:57:38;;;;;;;16.38;4.15;;;6.50;99.90;;;;;;4168657;28;20044;-62
2021/12/07 11:00:08;;;;;;;10.25;3.42;;;6.40;99.90;;;;;;4152965;28;20395;-62
2021/12/07 11:02:14;;;;;;;15.45;3.55;;;6.50;99.90;;;;;;4159439;28;20076;-62
2021/12/07 11:04:33;;;;;;;13.52;3.80;;;6.50;99.90;;;;;;4174717;28;20033;-62
2021/12/07 11:07:12;;;;;;;17.65;3.83;;;6.60;99.90;;;;;;4163553;28;20053;-62
2021/12/07 11:09:13;;;;;;;11.48;3.47;;;6.60;99.90;;;;;;4157271;28;20084;-62
2021/12/07 11:11:13;;;;;;;7.78;3.30;;;6.70;99.90;;;;;;4168222;28;20030;-61
2021/12/07 11:13:26;;;;;;;15.80;4.38;;;6.70;99.90;;;;;;4168616;28;20030;-62
2021/12/07 11:15:32;;;;;;;11.60;3.80;;;6.70;99.90;;;;;;4167831;28;20033;-62
2021/12/07 11:17:34;;;;;;;12.23;3.58;;;6.70;99.90;;;;;;4170954;28;20032;-62
2021/12/07 11:19:36;;;;;;;11.18;3.28;;;6.70;99.90;;;;;;4168546;28;20025;-62
2021/12/07 11:21:42;;;;;;;9.10;3.67;;;6.70;99.90;;;;;;4167756;28;20036;-62
2021/12/07 11:23:50;;;;;;;10.27;3.83;;;6.70;99.90;;;;;;4169047;28;20032;-62
2021/12/07 11:29:39;;;;;;;15.10;4.25;;;6.80;99.90;;;;;;4164884;28;20053;-62
2021/12/07 11:30:54;;;;;;;11.40;3.40;;;6.80;99.90;;;;;;4167019;28;20030;-62
2021/12/07 11:32:57;;;;;;;16.17;4.22;;;6.80;99.90;;;;;;4168466;28;20035;-62
2021/12/07 11:35:21;;;;;;;12.23;4.07;;;6.80;99.90;;;;;;4171169;28;20037;-62
2021/12/07 11:37:22;;;;;;;12.90;3.50;;;6.80;99.90;;;;;;4166225;28;20053;-62
2021/12/07 11:39:27;;;;;;;12.30;4.50;;;6.80;99.90;;;;;;4166308;28;20068;-62
2021/12/07 11:41:33;;;;;;;10.60;3.83;;;6.90;99.90;;;;;;4168021;28;20024;-62
2021/12/07 11:43:51;;;;;;;14.18;3.83;;;6.90;99.90;;;;;;4174194;28;20452;-62
2021/12/07 11:45:52;;;;;;;15.68;4.80;;;6.90;99.90;;;;;;4160421;28;20523;-62
2021/12/07 11:47:56;;;;;;;17.33;3.60;;;6.90;99.90;;;;;;4174692;28;20025;-62
2021/12/07 11:49:59;;;;;;;10.77;4.25;;;6.90;99.90;;;;;;4166308;28;20029;-62
2021/12/07 11:52:04;;;;;;;14.45;3.90;;;6.90;99.90;;;;;;4167750;28;20036;-62
2021/12/07 11:54:06;;;;;;;13.75;3.63;;;7.00;99.90;;;;;;4164791;28;20106;-62
2021/12/07 11:56:06;;;;;;;15.82;3.83;;;7.00;99.90;;;;;;4167928;28;20057;-62
2021/12/07 11:58:08;;;;;;;9.48;3.20;;;6.90;99.90;;;;;;4168423;28;20387;-62
2021/12/07 12:00:12;;;;;;;12.93;4.20;;;7.00;99.90;;;;;;4173303;28;20057;-63
2021/12/07 12:02:13;;;;;;;12.52;3.63;;;7.00;99.90;;;;;;4162987;28;20063;-62
2021/12/07 12:04:17;;;;;;;11.30;3.10;;;7.00;99.90;;;;;;4170602;28;20047;-62
2021/12/07 12:06:18;;;;;;;12.27;3.55;;;7.00;99.90;;;;;;4171296;28;20033;-62
2021/12/07 12:08:20;;;;;;;13.75;4.03;;;7.10;99.90;;;;;;4167718;28;20036;-62
2021/12/07 12:10:21;;;;;;;16.92;4.00;;;7.10;99.90;;;;;;4147227;28;20521;-62
2021/12/07 12:12:43;;;;;;;21.15;4.07;;;7.10;99.90;;;;;;4174956;28;20025;-62
2021/12/07 12:15:05;;;;;;;11.63;3.15;;;7.10;99.90;;;;;;4166427;28;20502;-62
2021/12/07 12:17:16;;;;;;;11.40;3.35;;;7.10;99.90;;;;;;4154359;28;20117;-62
2021/12/07 12:19:59;;;;;;;13.10;3.10;;;7.10;99.90;;;;;;4171160;28;20025;-62
2021/12/07 12:22:29;;;;;;;11.02;2.88;;;7.10;99.90;;;;;;4168253;28;20037;-62